sensor_id;sensor_type;location;lat;lon;timestamp;pressure;altitude;pressure_sealevel;temperature;humidity
39341;BME280;25059;52.132;21.062;2023-08-17T05:34:40;100739.81;;;26.88;100.00
39341;BME280;25059;52.132;21.062;2023-08-17T05:37:27;100735.06;;;27.00;100.00
39341;BME280;25059;52.132;21.062;2023-08-17T05:40:12;100737.03;;;27.16;100.00
39341;BME280;25059;52.132;21.062;2023-08-17T05:42:57;100741.06;;;27.38;100.00
39341;BME280;25059;52.132;21.062;2023-08-17T05:45:41;100747.75;;;27.25;100.00
39341;BME280;25059;52.132;21.062;2023-08-17T05:48:26;100743.09;;;27.35;100.00
39341;BME280;25059;52.132;21.062;2023-08-17T05:51:10;100737.88;;;27.60;100.00
39341;BME280;25059;52.132;21.062;2023-08-17T05:53:55;100738.84;;;27.59;100.00
39341;BME280;25059;52.132;21.062;2023-08-17T05:56:40;100739.47;;;27.53;100.00
39341;BME280;25059;52.132;21.062;2023-08-17T05:59:29;100732.56;;;27.76;100.00
39341;BME280;25059;52.132;21.062;2023-08-17T06:02:14;100724.47;;;27.84;100.00
39341;BME280;25059;52.132;21.062;2023-08-17T06:05:00;100722.38;;;28.04;100.00
39341;BME280;25059;52.132;21.062;2023-08-17T06:07:45;100725.34;;;28.27;100.00
39341;BME280;25059;52.132;21.062;2023-08-17T06:10:29;100727.75;;;28.46;100.00
39341;BME280;25059;52.132;21.062;2023-08-17T06:13:14;100724.72;;;28.57;100.00
39341;BME280;25059;52.132;21.062;2023-08-17T06:15:59;100723.72;;;28.67;100.00
39341;BME280;25059;52.132;21.062;2023-08-17T06:18:43;100739.47;;;28.79;100.00
39341;BME280;25059;52.132;21.062;2023-08-17T06:21:28;100732.69;;;28.59;100.00
39341;BME280;25059;52.132;21.062;2023-08-17T06:24:13;100742.84;;;28.73;100.00
39341;BME280;25059;52.132;21.062;2023-08-17T06:26:57;100741.31;;;28.71;100.00
39341;BME280;25059;52.132;21.062;2023-08-17T06:29:42;100749.41;;;28.54;100.00
39341;BME280;25059;52.132;21.062;2023-08-17T06:32:29;100747.91;;;28.76;100.00
39341;BME280;25059;52.132;21.062;2023-08-17T06:35:14;100749.81;;;28.92;100.00
39341;BME280;25059;52.132;21.062;2023-08-17T06:37:59;100751.19;;;29.04;100.00
39341;BME280;25059;52.132;21.062;2023-08-17T06:40:45;100749.97;;;29.31;100.00
39341;BME280;25059;52.132;21.062;2023-08-17T06:43:30;100737.59;;;29.37;100.00
39341;BME280;25059;52.132;21.062;2023-08-17T06:46:15;100739.66;;;29.43;100.00
39341;BME280;25059;52.132;21.062;2023-08-17T06:49:00;100740.69;;;29.25;100.00
39341;BME280;25059;52.132;21.062;2023-08-17T06:51:44;100740.00;;;29.48;100.00
39341;BME280;25059;52.132;21.062;2023-08-17T06:54:29;100737.38;;;29.71;100.00
39341;BME280;25059;52.132;21.062;2023-08-17T06:57:16;100738.63;;;29.99;100.00
39341;BME280;25059;52.132;21.062;2023-08-17T07:00:00;100749.50;;;29.99;100.00
39341;BME280;25059;52.132;21.062;2023-08-17T07:02:45;100751.97;;;30.17;100.00
39341;BME280;25059;52.132;21.062;2023-08-17T07:05:29;100747.81;;;30.37;100.00
39341;BME280;25059;52.132;21.062;2023-08-17T07:08:14;100745.16;;;30.60;98.75
39341;BME280;25059;52.132;21.062;2023-08-17T07:11:01;100742.88;;;31.09;94.79
39341;BME280;25059;52.132;21.062;2023-08-17T07:13:47;100747.94;;;31.35;90.70
39341;BME280;25059;52.132;21.062;2023-08-17T07:16:32;100730.28;;;31.84;87.68
39341;BME280;25059;52.132;21.062;2023-08-17T07:19:18;100739.09;;;31.71;87.84
39341;BME280;25059;52.132;21.062;2023-08-17T07:22:03;100743.19;;;31.67;87.59
39341;BME280;25059;52.132;21.062;2023-08-17T07:24:47;100751.16;;;31.68;87.91
39341;BME280;25059;52.132;21.062;2023-08-17T07:27:32;100748.78;;;31.36;89.90
39341;BME280;25059;52.132;21.062;2023-08-17T07:30:16;100741.75;;;31.04;91.73
39341;BME280;25059;52.132;21.062;2023-08-17T07:33:01;100753.22;;;30.91;92.24
39341;BME280;25059;52.132;21.062;2023-08-17T07:35:46;100752.81;;;31.02;92.23
39341;BME280;25059;52.132;21.062;2023-08-17T07:38:31;100757.81;;;31.51;91.07
39341;BME280;25059;52.132;21.062;2023-08-17T07:41:18;100761.97;;;32.06;88.34
39341;BME280;25059;52.132;21.062;2023-08-17T07:44:03;100747.03;;;32.31;86.99
39341;BME280;25059;52.132;21.062;2023-08-17T07:46:48;100764.06;;;32.76;84.81
39341;BME280;25059;52.132;21.062;2023-08-17T07:49:32;100767.00;;;33.17;83.50
39341;BME280;25059;52.132;21.062;2023-08-17T07:52:17;100763.50;;;33.51;82.16
39341;BME280;25059;52.132;21.062;2023-08-17T07:55:02;100762.41;;;33.74;79.79
39341;BME280;25059;52.132;21.062;2023-08-17T07:57:47;100767.81;;;33.67;78.05
39341;BME280;25059;52.132;21.062;2023-08-17T08:01:06;100775.34;;;33.65;77.51
39341;BME280;25059;52.132;21.062;2023-08-17T08:03:50;100777.94;;;33.24;78.44
39341;BME280;25059;52.132;21.062;2023-08-17T08:06:35;100771.16;;;33.13;77.17
39341;BME280;25059;52.132;21.062;2023-08-17T08:09:19;100772.94;;;33.49;76.93
39341;BME280;25059;52.132;21.062;2023-08-17T08:12:05;100773.28;;;33.67;76.13
39341;BME280;25059;52.132;21.062;2023-08-17T08:14:52;100768.63;;;33.33;74.49
39341;BME280;25059;52.132;21.062;2023-08-17T08:17:36;100767.25;;;33.22;75.37
39341;BME280;25059;52.132;21.062;2023-08-17T08:20:21;100761.72;;;33.37;72.70
39341;BME280;25059;52.132;21.062;2023-08-17T08:23:06;100761.88;;;33.29;74.37
39341;BME280;25059;52.132;21.062;2023-08-17T08:25:51;100767.94;;;32.67;76.56
39341;BME280;25059;52.132;21.062;2023-08-17T08:28:36;100769.13;;;33.22;76.50
39341;BME280;25059;52.132;21.062;2023-08-17T08:31:20;100771.00;;;33.21;75.18
39341;BME280;25059;52.132;21.062;2023-08-17T08:34:05;100766.88;;;32.83;75.59
39341;BME280;25059;52.132;21.062;2023-08-17T08:36:49;100771.38;;;32.75;78.19
39341;BME280;25059;52.132;21.062;2023-08-17T08:39:48;100766.88;;;32.83;76.45
39341;BME280;25059;52.132;21.062;2023-08-17T08:42:33;100761.94;;;32.93;77.65
39341;BME280;25059;52.132;21.062;2023-08-17T08:45:18;100762.16;;;32.91;78.49
39341;BME280;25059;52.132;21.062;2023-08-17T08:48:08;100773.38;;;32.82;78.64
39341;BME280;25059;52.132;21.062;2023-08-17T08:50:54;100772.03;;;32.56;78.63
39341;BME280;25059;52.132;21.062;2023-08-17T08:53:45;100761.28;;;32.33;79.51
39341;BME280;25059;52.132;21.062;2023-08-17T08:56:32;100769.47;;;32.04;80.80
39341;BME280;25059;52.132;21.062;2023-08-17T08:59:20;100772.56;;;32.16;81.46
39341;BME280;25059;52.132;21.062;2023-08-17T09:02:05;100768.03;;;32.37;81.42
39341;BME280;25059;52.132;21.062;2023-08-17T09:04:50;100767.56;;;32.19;82.64
39341;BME280;25059;52.132;21.062;2023-08-17T09:07:35;100768.47;;;32.56;82.67
39341;BME280;25059;52.132;21.062;2023-08-17T09:10:21;100775.69;;;33.06;83.85
39341;BME280;25059;52.132;21.062;2023-08-17T09:13:06;100775.56;;;33.14;81.59
39341;BME280;25059;52.132;21.062;2023-08-17T09:15:50;100763.13;;;33.05;80.47
39341;BME280;25059;52.132;21.062;2023-08-17T09:18:35;100767.88;;;33.46;80.68
39341;BME280;25059;52.132;21.062;2023-08-17T09:21:22;100774.97;;;33.40;77.36
39341;BME280;25059;52.132;21.062;2023-08-17T09:24:07;100764.94;;;33.47;76.97
39341;BME280;25059;52.132;21.062;2023-08-17T09:26:52;100769.34;;;33.76;77.07
39341;BME280;25059;52.132;21.062;2023-08-17T09:29:42;100772.13;;;33.55;77.78
39341;BME280;25059;52.132;21.062;2023-08-17T09:32:31;100758.78;;;33.66;76.69
39341;BME280;25059;52.132;21.062;2023-08-17T09:35:15;100770.25;;;33.55;76.23
39341;BME280;25059;52.132;21.062;2023-08-17T09:38:00;100767.91;;;33.52;75.43
39341;BME280;25059;52.132;21.062;2023-08-17T09:40:45;100764.25;;;33.38;77.54
39341;BME280;25059;52.132;21.062;2023-08-17T09:43:30;100754.88;;;33.48;73.69
39341;BME280;25059;52.132;21.062;2023-08-17T09:46:17;100758.34;;;33.63;73.33
39341;BME280;25059;52.132;21.062;2023-08-17T09:49:02;100756.44;;;33.91;73.17
39341;BME280;25059;52.132;21.062;2023-08-17T09:51:51;100743.56;;;34.20;70.34
39341;BME280;25059;52.132;21.062;2023-08-17T09:54:36;100751.97;;;34.86;70.59
39341;BME280;25059;52.132;21.062;2023-08-17T09:57:23;100753.25;;;35.10;66.52
39341;BME280;25059;52.132;21.062;2023-08-17T10:00:08;100750.50;;;35.23;64.97
39341;BME280;25059;52.132;21.062;2023-08-17T10:02:55;100755.13;;;35.16;65.81
39341;BME280;25059;52.132;21.062;2023-08-17T10:05:44;100750.53;;;35.36;65.84
39341;BME280;25059;52.132;21.062;2023-08-17T10:08:31;100744.16;;;35.62;63.18
39341;BME280;25059;52.132;21.062;2023-08-17T10:11:19;100744.13;;;35.88;61.83
39341;BME280;25059;52.132;21.062;2023-08-17T10:14:09;100745.84;;;35.70;63.18
39341;BME280;25059;52.132;21.062;2023-08-17T10:17:01;100741.47;;;36.20;60.82
39341;BME280;25059;52.132;21.062;2023-08-17T10:19:50;100749.75;;;38.01;53.48
39341;BME280;25059;52.132;21.062;2023-08-17T10:22:42;100741.75;;;39.66;42.38
39341;BME280;25059;52.132;21.062;2023-08-17T10:25:29;100742.31;;;40.88;40.01
39341;BME280;25059;52.132;21.062;2023-08-17T10:28:15;100739.94;;;42.51;35.21
39341;BME280;25059;52.132;21.062;2023-08-17T10:31:00;100742.06;;;43.82;31.43
39341;BME280;25059;52.132;21.062;2023-08-17T10:33:46;100733.41;;;44.36;29.15
39341;BME280;25059;52.132;21.062;2023-08-17T10:36:32;100732.91;;;44.60;25.42
39341;BME280;25059;52.132;21.062;2023-08-17T10:39:26;100734.56;;;44.66;25.26
39341;BME280;25059;52.132;21.062;2023-08-17T10:42:11;100735.13;;;44.63;24.33
39341;BME280;25059;52.132;21.062;2023-08-17T10:44:55;100728.94;;;45.67;22.00
39341;BME280;25059;52.132;21.062;2023-08-17T10:47:40;100719.38;;;47.45;19.79
39341;BME280;25059;52.132;21.062;2023-08-17T10:50:24;100726.63;;;47.17;19.71
39341;BME280;25059;52.132;21.062;2023-08-17T10:53:12;100714.97;;;49.13;19.14
39341;BME280;25059;52.132;21.062;2023-08-17T10:55:57;100727.97;;;50.05;18.10
39341;BME280;25059;52.132;21.062;2023-08-17T10:58:43;100730.56;;;49.47;18.93
39341;BME280;25059;52.132;21.062;2023-08-17T11:01:36;100715.00;;;50.46;18.17
39341;BME280;25059;52.132;21.062;2023-08-17T11:04:23;100726.22;;;51.13;17.52
39341;BME280;25059;52.132;21.062;2023-08-17T11:07:13;100732.47;;;48.54;16.90
39341;BME280;25059;52.132;21.062;2023-08-17T11:09:59;100728.00;;;46.52;18.55
39341;BME280;25059;52.132;21.062;2023-08-17T11:12:44;100710.09;;;47.26;17.56
39341;BME280;25059;52.132;21.062;2023-08-17T11:15:38;100713.91;;;48.96;16.52
39341;BME280;25059;52.132;21.062;2023-08-17T11:18:23;100712.53;;;50.08;16.06
39341;BME280;25059;52.132;21.062;2023-08-17T11:21:08;100702.44;;;48.27;16.29
39341;BME280;25059;52.132;21.062;2023-08-17T11:23:55;100710.72;;;46.89;17.53
39341;BME280;25059;52.132;21.062;2023-08-17T11:26:41;100705.16;;;45.21;19.05
39341;BME280;25059;52.132;21.062;2023-08-17T11:29:25;100703.53;;;47.41;17.29
39341;BME280;25059;52.132;21.062;2023-08-17T11:32:11;100704.47;;;49.38;17.17
39341;BME280;25059;52.132;21.062;2023-08-17T11:34:57;100708.66;;;50.31;16.24
39341;BME280;25059;52.132;21.062;2023-08-17T11:37:41;100706.72;;;49.91;16.24
39341;BME280;25059;52.132;21.062;2023-08-17T11:40:26;100702.19;;;49.54;16.37
39341;BME280;25059;52.132;21.062;2023-08-17T11:43:12;100697.19;;;49.09;16.77
39341;BME280;25059;52.132;21.062;2023-08-17T11:45:56;100709.91;;;50.11;17.28
39341;BME280;25059;52.132;21.062;2023-08-17T11:48:41;100710.19;;;51.35;16.09
39341;BME280;25059;52.132;21.062;2023-08-17T11:51:30;100705.16;;;50.12;16.02
39341;BME280;25059;52.132;21.062;2023-08-17T11:54:15;100705.59;;;47.78;16.76
39341;BME280;25059;52.132;21.062;2023-08-17T11:57:00;100692.63;;;47.44;17.49
39341;BME280;25059;52.132;21.062;2023-08-17T11:59:45;100693.91;;;46.65;17.76
39341;BME280;25059;52.132;21.062;2023-08-17T12:02:30;100695.81;;;47.04;18.50
39341;BME280;25059;52.132;21.062;2023-08-17T12:05:23;100689.09;;;48.94;16.26
39341;BME280;25059;52.132;21.062;2023-08-17T12:08:07;100696.81;;;50.57;16.38
39341;BME280;25059;52.132;21.062;2023-08-17T12:10:53;100693.31;;;51.75;16.46
39341;BME280;25059;52.132;21.062;2023-08-17T12:13:37;100688.22;;;52.63;14.31
39341;BME280;25059;52.132;21.062;2023-08-17T12:16:22;100691.84;;;51.78;15.54
39341;BME280;25059;52.132;21.062;2023-08-17T12:19:07;100686.38;;;49.63;16.14
39341;BME280;25059;52.132;21.062;2023-08-17T12:21:52;100684.84;;;47.65;17.91
39341;BME280;25059;52.132;21.062;2023-08-17T12:24:37;100693.13;;;46.59;19.37
39341;BME280;25059;52.132;21.062;2023-08-17T12:27:22;100687.88;;;47.21;19.00
39341;BME280;25059;52.132;21.062;2023-08-17T12:30:14;100683.44;;;48.29;17.62
39341;BME280;25059;52.132;21.062;2023-08-17T12:33:07;100691.59;;;49.23;16.69
39341;BME280;25059;52.132;21.062;2023-08-17T12:35:52;100691.16;;;48.70;16.39
39341;BME280;25059;52.132;21.062;2023-08-17T12:38:38;100697.16;;;48.44;16.67
39341;BME280;25059;52.132;21.062;2023-08-17T12:41:28;100692.84;;;49.17;16.48
39341;BME280;25059;52.132;21.062;2023-08-17T12:44:13;100688.03;;;48.90;16.78
39341;BME280;25059;52.132;21.062;2023-08-17T12:46:58;100685.97;;;48.63;16.94
39341;BME280;25059;52.132;21.062;2023-08-17T12:49:43;100686.16;;;47.73;17.09
39341;BME280;25059;52.132;21.062;2023-08-17T12:52:27;100676.84;;;47.06;18.21
39341;BME280;25059;52.132;21.062;2023-08-17T12:55:12;100675.38;;;48.28;17.44
39341;BME280;25059;52.132;21.062;2023-08-17T12:57:57;100679.22;;;49.29;17.05
39341;BME280;25059;52.132;21.062;2023-08-17T13:00:42;100681.03;;;50.02;16.35
39341;BME280;25059;52.132;21.062;2023-08-17T13:03:26;100677.88;;;51.47;15.46
39341;BME280;25059;52.132;21.062;2023-08-17T13:06:11;100682.84;;;54.02;13.93
39341;BME280;25059;52.132;21.062;2023-08-17T13:08:56;100669.31;;;53.96;13.88
39341;BME280;25059;52.132;21.062;2023-08-17T13:11:40;100672.59;;;54.39;13.59
39341;BME280;25059;52.132;21.062;2023-08-17T13:14:25;100669.34;;;53.66;13.33
39341;BME280;25059;52.132;21.062;2023-08-17T13:17:10;100666.47;;;53.45;13.88
39341;BME280;25059;52.132;21.062;2023-08-17T13:19:54;100665.22;;;54.47;13.34
39341;BME280;25059;52.132;21.062;2023-08-17T13:22:39;100675.91;;;54.74;12.89
39341;BME280;25059;52.132;21.062;2023-08-17T13:25:23;100679.06;;;54.19;13.37
39341;BME280;25059;52.132;21.062;2023-08-17T13:28:08;100672.34;;;51.73;14.94
39341;BME280;25059;52.132;21.062;2023-08-17T13:30:53;100668.34;;;52.94;14.58
39341;BME280;25059;52.132;21.062;2023-08-17T13:33:37;100676.81;;;55.36;12.54
39341;BME280;25059;52.132;21.062;2023-08-17T13:36:22;100672.81;;;55.49;12.32
39341;BME280;25059;52.132;21.062;2023-08-17T13:39:07;100671.53;;;54.65;12.53
39341;BME280;25059;52.132;21.062;2023-08-17T13:41:51;100675.34;;;56.31;12.25
39341;BME280;25059;52.132;21.062;2023-08-17T13:44:37;100669.63;;;55.51;12.14
39341;BME280;25059;52.132;21.062;2023-08-17T13:47:22;100672.31;;;56.52;11.70
39341;BME280;25059;52.132;21.062;2023-08-17T13:50:07;100679.09;;;56.63;11.85
39341;BME280;25059;52.132;21.062;2023-08-17T13:52:52;100673.28;;;56.44;11.92
39341;BME280;25059;52.132;21.062;2023-08-17T13:55:36;100677.25;;;57.14;11.18
39341;BME280;25059;52.132;21.062;2023-08-17T13:58:21;100666.16;;;58.11;10.56
39341;BME280;25059;52.132;21.062;2023-08-17T14:01:06;100663.81;;;57.27;10.78
39341;BME280;25059;52.132;21.062;2023-08-17T14:03:50;100654.31;;;56.88;11.25
39341;BME280;25059;52.132;21.062;2023-08-17T14:06:35;100662.22;;;55.09;11.81
39341;BME280;25059;52.132;21.062;2023-08-17T14:09:20;100662.47;;;55.65;11.55
39341;BME280;25059;52.132;21.062;2023-08-17T14:12:05;100662.88;;;54.82;12.03
39341;BME280;25059;52.132;21.062;2023-08-17T14:14:50;100662.53;;;55.81;11.87
39341;BME280;25059;52.132;21.062;2023-08-17T14:17:34;100681.81;;;57.70;10.93
39341;BME280;25059;52.132;21.062;2023-08-17T14:20:19;100687.44;;;57.19;10.99
39341;BME280;25059;52.132;21.062;2023-08-17T14:23:04;100679.16;;;56.51;11.11
39341;BME280;25059;52.132;21.062;2023-08-17T14:25:48;100683.59;;;55.96;11.52
39341;BME280;25059;52.132;21.062;2023-08-17T14:28:34;100671.47;;;55.95;11.55
39341;BME280;25059;52.132;21.062;2023-08-17T14:31:18;100655.50;;;56.87;10.90
39341;BME280;25059;52.132;21.062;2023-08-17T14:34:03;100657.84;;;57.48;10.38
39341;BME280;25059;52.132;21.062;2023-08-17T14:36:47;100650.47;;;57.43;10.80
39341;BME280;25059;52.132;21.062;2023-08-17T14:39:32;100648.13;;;56.82;10.81
39341;BME280;25059;52.132;21.062;2023-08-17T14:42:17;100639.44;;;57.38;10.90
39341;BME280;25059;52.132;21.062;2023-08-17T14:45:01;100641.34;;;58.89;10.21
39341;BME280;25059;52.132;21.062;2023-08-17T14:47:46;100635.91;;;57.60;10.32
39341;BME280;25059;52.132;21.062;2023-08-17T14:53:54;100628.56;;;58.14;10.13
39341;BME280;25059;52.132;21.062;2023-08-17T14:56:38;100625.84;;;57.28;10.83
39341;BME280;25059;52.132;21.062;2023-08-17T14:59:23;100636.88;;;55.98;11.36
39341;BME280;25059;52.132;21.062;2023-08-17T15:02:07;100626.81;;;55.73;11.22
39341;BME280;25059;52.132;21.062;2023-08-17T15:04:53;100633.97;;;56.11;10.98
39341;BME280;25059;52.132;21.062;2023-08-17T15:07:38;100629.69;;;55.00;11.66
39341;BME280;25059;52.132;21.062;2023-08-17T15:10:23;100639.16;;;54.83;11.37
39341;BME280;25059;52.132;21.062;2023-08-17T15:13:07;100634.50;;;54.99;11.87
39341;BME280;25059;52.132;21.062;2023-08-17T15:15:52;100631.91;;;54.94;11.72
39341;BME280;25059;52.132;21.062;2023-08-17T15:18:38;100628.31;;;51.99;13.57
39341;BME280;25059;52.132;21.062;2023-08-17T15:21:22;100618.34;;;50.70;14.33
39341;BME280;25059;52.132;21.062;2023-08-17T15:24:07;100625.50;;;51.82;13.12
39341;BME280;25059;52.132;21.062;2023-08-17T15:26:51;100619.00;;;52.68;12.63
39341;BME280;25059;52.132;21.062;2023-08-17T15:29:36;100618.63;;;52.78;12.44
